Terminal Aerodrome Forecast
Issued by NWS

Home | Current Version | Previous Version | Text Only | Print | Product List | Glossary On
Versions: 1 2 3 4 5 6 7 8 9 10 11 12 13 14 15 16 17
000
FTAK31 PAJN 272337
TAFAWG
TAF
PAWG 272337Z 2800/2824 VRB04KT P6SM SKC
     FM280300 VRB04KT P6SM SCT060
     FM280800 12004KT P6SM BKN060 OVC090
     FM281300 12004KT P6SM VCSH BKN060 OVC090
     FM282100 29005KT P6SM VCSH BKN060 BKN090
      AMD LTD TO CLD VIS AND WIND 2806/2815=

USA.gov is the U.S. government's official web portal to all federal, state and local government web resources and services.